Urb Campo Alegre, Puerto Rico
Current Conditions -  °F | °C
As of 11:56 AM on Sunday 21 Dec 2014 (Local Time) from TJSJ Reporting Station
Scattered Clouds Scattered Clouds  
Wind Chill: 83°   Ceiling: Unl
Heat Index: 86°   Visibility: 10mi
Dew Point: 69°   Wind: 17mph
Humidity: 63%   Direction: 80°E
Pressure: 30.09"   Gusts: NA
Location:  18.1892°N, 66.1134°W
Report Text: TJSJ 211556Z 08015KT 10SM SCT036 28/21 A3009 RMK AO2 SLP189 T02830206
Loading
Personal Weather Stations






























Interactive Weather Map New forecast layout! Learn more

10-Day Weather Forecast

Advertisements
Track Severe Weather on mobile